createdAt,value
2022-09-18T00:00:39.318Z,17.95
2022-09-18T00:05:43.760Z,17.97
2022-09-18T00:10:47.248Z,17.94
2022-09-18T00:15:57.203Z,17.82
2022-09-18T00:21:08.964Z,17.65
2022-09-18T00:26:13.953Z,17.43
2022-09-18T00:31:20.678Z,17.33
2022-09-18T00:36:24.756Z,17.21
2022-09-18T00:41:33.525Z,17.08
2022-09-18T00:46:37.924Z,17.00
2022-09-18T00:51:42.638Z,16.88
2022-09-18T00:56:48.138Z,16.72
2022-09-18T01:01:52.065Z,16.66
2022-09-18T01:07:19.690Z,16.47
2022-09-18T01:12:32.533Z,16.46
2022-09-18T01:17:57.943Z,16.51
2022-09-18T01:23:32.240Z,16.29
2022-09-18T01:28:46.955Z,16.12
2022-09-18T01:34:01.398Z,15.95
2022-09-18T01:39:17.523Z,15.84
2022-09-18T01:44:26.767Z,15.75
2022-09-18T01:49:37.207Z,15.76
2022-09-18T01:54:44.757Z,15.69
2022-09-18T01:59:58.822Z,15.63
2022-09-18T02:05:08.166Z,15.43
2022-09-18T02:10:15.215Z,15.26
2022-09-18T02:15:19.808Z,15.24
2022-09-18T02:20:34.745Z,15.15
2022-09-18T02:25:45.377Z,14.99
2022-09-18T02:30:48.970Z,14.90
2022-09-18T02:36:15.855Z,14.81
2022-09-18T02:41:35.366Z,14.74
2022-09-18T02:46:57.698Z,14.72
2022-09-18T02:52:25.095Z,14.66
2022-09-18T02:57:37.877Z,14.65
2022-09-18T03:02:48.159Z,14.52
2022-09-18T03:07:59.432Z,14.50
2022-09-18T03:13:05.023Z,14.43
2022-09-18T03:18:08.076Z,14.55
2022-09-18T03:23:12.547Z,14.78
2022-09-18T03:28:18.177Z,14.80
2022-09-18T03:33:21.968Z,14.94
2022-09-18T03:38:25.004Z,15.09
2022-09-18T03:43:29.509Z,15.14
2022-09-18T03:48:33.536Z,15.24
2022-09-18T03:53:36.537Z,15.25
2022-09-18T03:59:09.171Z,15.30
2022-09-18T04:04:36.369Z,15.30
2022-09-18T04:09:54.751Z,15.64
2022-09-18T04:14:57.944Z,15.46
2022-09-18T04:20:00.961Z,15.52
2022-09-18T04:25:05.534Z,15.43
2022-09-18T04:30:09.542Z,15.41
2022-09-18T04:35:15.602Z,15.33
2022-09-18T04:40:21.506Z,15.41
2022-09-18T04:45:24.593Z,15.29
2022-09-18T04:50:28.373Z,15.26
2022-09-18T04:55:50.089Z,15.22
2022-09-18T05:00:53.834Z,15.43
2022-09-18T05:05:58.780Z,15.56
2022-09-18T05:11:04.831Z,15.66
2022-09-18T05:16:13.059Z,15.84
2022-09-18T05:21:19.625Z,16.03
2022-09-18T05:26:23.557Z,16.12
2022-09-18T05:31:26.908Z,16.43
2022-09-18T05:36:30.623Z,16.64
2022-09-18T05:41:34.076Z,16.97
2022-09-18T05:46:39.870Z,17.32
2022-09-18T05:51:43.072Z,17.63
2022-09-18T05:56:47.051Z,18.05
2022-09-18T06:01:51.483Z,18.39
2022-09-18T06:07:03.018Z,18.91
2022-09-18T06:12:06.824Z,22.60
2022-09-18T06:17:11.733Z,23.54
2022-09-18T06:22:14.804Z,24.48
2022-09-18T06:27:19.561Z,23.31
2022-09-18T06:32:22.556Z,25.43
2022-09-18T06:37:25.991Z,25.36
2022-09-18T06:42:56.479Z,25.36
2022-09-18T06:48:32.452Z,24.59
2022-09-18T06:53:38.496Z,25.87
2022-09-18T06:58:42.055Z,26.45
2022-09-18T07:03:49.926Z,26.95
2022-09-18T07:09:01.948Z,27.58
2022-09-18T07:14:19.908Z,27.78
2022-09-18T07:19:24.814Z,25.65
2022-09-18T07:24:28.670Z,22.98
2022-09-18T07:29:33.016Z,24.57
2022-09-18T07:34:36.022Z,23.51
2022-09-18T07:39:39.004Z,22.85
2022-09-18T07:45:14.145Z,22.10
2022-09-18T07:50:18.479Z,21.76
2022-09-18T07:55:25.190Z,22.87
2022-09-18T08:00:33.823Z,22.83
2022-09-18T08:05:38.261Z,23.61
2022-09-18T08:10:44.145Z,26.00
2022-09-18T08:16:06.364Z,25.86
2022-09-18T08:21:45.151Z,23.55
2022-09-18T08:26:51.793Z,25.57
2022-09-18T08:31:55.499Z,26.81
2022-09-18T08:36:58.793Z,26.87
2022-09-18T08:42:30.496Z,25.98
2022-09-18T08:47:41.699Z,25.67
2022-09-18T08:52:51.442Z,25.52
2022-09-18T08:58:14.990Z,27.03
2022-09-18T09:03:53.647Z,27.46
2022-09-18T09:08:58.463Z,26.42
2022-09-18T09:14:10.835Z,27.31
2022-09-18T09:19:31.772Z,28.45
2022-09-18T09:25:06.201Z,28.34
2022-09-18T09:30:24.099Z,28.71
2022-09-18T09:36:16.031Z,27.60
2022-09-18T09:41:33.671Z,28.13
2022-09-18T09:47:07.189Z,28.47
2022-09-18T09:52:24.739Z,27.82
2022-09-18T09:58:03.187Z,28.89
2022-09-18T10:03:42.962Z,29.51
2022-09-18T10:09:02.434Z,30.30
2022-09-18T10:14:13.468Z,29.48
2022-09-18T10:19:21.720Z,29.26
2022-09-18T10:24:24.862Z,30.29
2022-09-18T10:29:35.617Z,28.75
2022-09-18T10:34:42.635Z,28.95
2022-09-18T10:39:53.737Z,27.42
2022-09-18T10:45:03.694Z,26.08
2022-09-18T10:50:10.900Z,25.44
2022-09-18T10:55:22.777Z,24.13
2022-09-18T11:00:39.220Z,23.74
2022-09-18T11:06:00.798Z,24.52
2022-09-18T11:11:12.366Z,25.76
2022-09-18T11:16:26.325Z,25.72
2022-09-18T11:21:30.014Z,25.01
2022-09-18T11:26:33.652Z,25.14
2022-09-18T11:32:08.383Z,26.28
2022-09-18T11:37:14.512Z,25.58
2022-09-18T11:42:20.020Z,26.66
2022-09-18T11:48:02.726Z,25.86
2022-09-18T11:53:16.449Z,24.96
2022-09-18T11:58:53.387Z,24.73
2022-09-18T12:04:19.672Z,24.80
2022-09-18T12:09:43.140Z,25.71
2022-09-18T12:14:51.886Z,25.62
2022-09-18T12:20:04.236Z,26.66
2022-09-18T12:25:17.122Z,26.61
2022-09-18T12:30:58.978Z,26.40
2022-09-18T12:36:19.319Z,26.40
2022-09-18T12:41:54.447Z,24.85
2022-09-18T12:47:03.693Z,24.23
2022-09-18T12:52:27.559Z,23.74
2022-09-18T12:57:45.304Z,23.57
2022-09-18T13:03:03.234Z,23.85
2022-09-18T13:08:22.599Z,24.05
2022-09-18T13:13:51.222Z,24.33
2022-09-18T13:18:58.252Z,24.29
2022-09-18T13:24:05.954Z,25.56
2022-09-18T13:29:45.636Z,24.34
2022-09-18T13:34:58.184Z,23.49
2022-09-18T13:40:26.504Z,24.56
2022-09-18T13:45:38.914Z,24.39
2022-09-18T13:51:10.989Z,23.50
2022-09-18T13:56:17.871Z,23.20
2022-09-18T14:01:43.981Z,23.18
2022-09-18T14:06:51.008Z,23.47
2022-09-18T14:11:55.871Z,24.26
2022-09-18T14:17:12.706Z,24.42
2022-09-18T14:22:29.057Z,24.20
2022-09-18T14:27:58.440Z,24.36
2022-09-18T14:33:05.065Z,24.62
2022-09-18T14:38:36.921Z,25.63
2022-09-18T14:43:50.023Z,25.72
2022-09-18T14:48:55.911Z,24.66
2022-09-18T14:54:00.307Z,23.14
2022-09-18T14:59:06.792Z,23.20
2022-09-18T15:04:23.687Z,23.01
2022-09-18T15:09:31.446Z,23.37
2022-09-18T15:14:44.054Z,23.76
2022-09-18T15:19:58.698Z,24.22
2022-09-18T15:25:02.184Z,23.29
2022-09-18T15:30:08.546Z,22.56
2022-09-18T15:35:22.638Z,22.54
2022-09-18T15:40:30.055Z,22.27
2022-09-18T15:45:35.901Z,21.94
2022-09-18T15:50:41.041Z,21.70
2022-09-18T15:55:54.086Z,21.26
2022-09-18T16:01:00.876Z,21.05
2022-09-18T16:06:06.644Z,21.03
2022-09-18T16:11:48.048Z,20.69
2022-09-18T16:16:51.359Z,20.38
2022-09-18T16:21:54.374Z,20.38
2022-09-18T16:27:08.189Z,20.34
2022-09-18T16:32:12.283Z,20.15
2022-09-18T16:37:17.301Z,19.85
2022-09-18T16:42:20.395Z,19.51
2022-09-18T16:47:26.129Z,19.49
2022-09-18T16:52:29.250Z,19.35
2022-09-18T16:57:32.358Z,19.22
2022-09-18T17:02:36.657Z,19.12
2022-09-18T17:07:43.190Z,18.91
2022-09-18T17:12:46.811Z,18.76
2022-09-18T17:17:50.107Z,18.70
2022-09-18T17:22:53.788Z,18.68
2022-09-18T17:27:56.986Z,18.78
2022-09-18T17:33:00.790Z,18.78
2022-09-18T17:38:04.568Z,18.75
2022-09-18T17:43:08.477Z,18.77
2022-09-18T17:48:11.528Z,18.77
2022-09-18T17:53:15.103Z,18.60
2022-09-18T17:58:19.295Z,18.51
2022-09-18T18:03:24.476Z,18.51
2022-09-18T18:08:29.335Z,18.45
2022-09-18T18:13:33.520Z,18.30
2022-09-18T18:18:38.370Z,18.25
2022-09-18T18:23:42.395Z,18.27
2022-09-18T18:28:46.158Z,18.12
2022-09-18T18:33:49.185Z,17.98
2022-09-18T18:38:55.332Z,17.89
2022-09-18T18:44:02.193Z,18.03
2022-09-18T18:49:09.365Z,17.98
2022-09-18T18:54:14.336Z,18.01
2022-09-18T18:59:19.287Z,18.03
2022-09-18T19:04:23.244Z,18.02
2022-09-18T19:09:30.653Z,18.02
2022-09-18T19:14:37.461Z,17.83
2022-09-18T19:19:47.964Z,17.58
2022-09-18T19:25:01.437Z,17.21
2022-09-18T19:30:06.225Z,17.37
2022-09-18T19:35:10.564Z,17.34
2022-09-18T19:40:16.775Z,17.26
2022-09-18T19:45:26.550Z,16.99
2022-09-18T19:50:33.898Z,16.76
2022-09-18T19:55:38.822Z,16.72
2022-09-18T20:00:45.768Z,16.91
2022-09-18T20:05:52.133Z,17.06
2022-09-18T20:10:56.328Z,17.26
2022-09-18T20:16:06.931Z,17.35
2022-09-18T20:21:14.507Z,17.40
2022-09-18T20:26:20.504Z,17.38
2022-09-18T20:31:25.705Z,17.36
2022-09-18T20:36:32.249Z,17.35
2022-09-18T20:41:40.351Z,17.27
2022-09-18T20:46:44.208Z,17.29
2022-09-18T20:51:47.758Z,17.11
2022-09-18T20:56:51.560Z,17.17
2022-09-18T21:01:55.431Z,17.12
2022-09-18T21:07:01.968Z,16.95
2022-09-18T21:12:06.650Z,16.99
2022-09-18T21:17:10.338Z,16.94
2022-09-18T21:22:14.415Z,17.16
2022-09-18T21:27:18.019Z,17.19
2022-09-18T21:32:22.467Z,17.24
2022-09-18T21:37:26.101Z,17.22
2022-09-18T21:42:29.488Z,17.29
2022-09-18T21:47:33.475Z,17.28
2022-09-18T21:52:37.946Z,17.29
2022-09-18T21:57:42.073Z,17.27
2022-09-18T22:02:46.901Z,17.22
2022-09-18T22:08:05.800Z,17.23
2022-09-18T22:13:10.053Z,17.37
2022-09-18T22:18:13.095Z,17.26
2022-09-18T22:23:16.920Z,17.57
2022-09-18T22:28:20.632Z,17.42
2022-09-18T22:33:24.067Z,17.21
2022-09-18T22:38:27.478Z,17.41
2022-09-18T22:43:31.644Z,17.60
2022-09-18T22:48:36.023Z,17.43
2022-09-18T22:53:44.120Z,17.61
2022-09-18T22:58:50.958Z,17.47
2022-09-18T23:03:57.377Z,17.35
2022-09-18T23:09:01.508Z,17.35
2022-09-18T23:14:06.318Z,17.28
2022-09-18T23:19:16.246Z,17.25
2022-09-18T23:24:20.136Z,17.34
2022-09-18T23:29:25.939Z,17.40
2022-09-18T23:34:32.266Z,17.54
2022-09-18T23:39:36.249Z,17.76
2022-09-18T23:44:39.657Z,17.78
2022-09-18T23:49:43.111Z,17.73
2022-09-18T23:54:47.158Z,17.80
2022-09-18T23:59:50.255Z,17.78
